Time;durP1;ratioP1;P1;durP2;ratioP2;P2;SDS_P1;SDS_P2;PMS_P1;PMS_P2;Temp;Humidity;BMP_temperature;BMP_pressure;BME280_temperature;BME280_humidity;BME280_pressure;Samples;Min_cycle;Max_cycle;Signal;HPM_P1;HPM_P2
2023/01/12 00:02:15;;;;;;;43.05;24.88;;;17.70;76.20;;;18.74;42.80;98724.28;5073936;27;20091;-79
2023/01/12 00:04:42;;;;;;;47.13;26.42;;;17.70;76.40;;;18.78;42.71;98727.22;5063771;27;20192;-79
2023/01/12 00:07:11;;;;;;;37.08;23.77;;;17.70;76.30;;;18.79;42.78;98732.38;5112704;27;20051;-79
2023/01/12 00:09:37;;;;;;;41.22;26.20;;;17.80;76.30;;;18.78;42.82;98725.28;5076578;27;20048;-79
2023/01/12 00:12:05;;;;;;;38.80;24.52;;;17.70;76.30;;;18.82;42.69;98733.66;5082079;27;20082;-79
2023/01/12 00:14:35;;;;;;;45.97;27.40;;;17.80;76.20;;;18.79;42.52;98731.59;5092044;27;20038;-79
2023/01/12 00:17:02;;;;;;;38.95;24.50;;;17.80;76.20;;;18.77;42.75;98742.88;5094317;27;20089;-79
2023/01/12 00:19:28;;;;;;;41.05;25.63;;;17.80;76.20;;;18.79;42.79;98739.81;5097091;27;20049;-79
2023/01/12 00:22:18;;;;;;;39.53;24.55;;;17.80;76.20;;;18.79;42.75;98742.56;5075293;27;20849;-79
2023/01/12 00:24:46;;;;;;;40.13;24.95;;;17.70;76.10;;;18.76;42.69;98755.03;5100647;27;20046;-79
2023/01/12 00:27:18;;;;;;;43.83;24.67;;;17.70;76.10;;;18.77;42.83;98755.81;5078454;27;20110;-79
2023/01/12 00:29:44;;;;;;;39.72;25.77;;;17.70;76.10;;;18.75;42.76;98763.56;5061564;27;20038;-79
2023/01/12 00:32:16;;;;;;;37.17;25.30;;;17.70;76.10;;;18.74;42.71;98762.75;5071039;27;20394;-79
2023/01/12 00:34:42;;;;;;;40.40;26.15;;;17.70;76.10;;;18.78;42.58;98761.00;5100630;28;20161;-79
2023/01/12 00:37:09;;;;;;;39.05;25.15;;;17.70;76.10;;;18.79;42.57;98762.59;5093786;28;20891;-79
2023/01/12 00:39:38;;;;;;;39.58;25.45;;;17.80;76.30;;;18.77;42.67;98770.38;5076761;28;20043;-79
2023/01/12 00:47:34;;;;;;;39.70;25.73;;;17.70;76.10;;;18.77;42.93;98777.81;5100942;27;20046;-79
2023/01/12 00:50:00;;;;;;;43.10;24.70;;;17.70;76.70;;;18.72;42.98;98773.25;5076355;28;20043;-79
2023/01/12 00:52:27;;;;;;;38.53;25.95;;;17.70;76.30;;;18.76;42.77;98771.50;5055787;28;20054;-79
2023/01/12 00:54:53;;;;;;;37.20;26.13;;;17.70;76.20;;;18.78;42.61;98779.44;5092247;28;20031;-79
2023/01/12 00:57:19;;;;;;;38.97;24.63;;;17.80;77.10;;;18.77;42.57;98781.34;5074808;28;20034;-79
2023/01/12 00:59:46;;;;;;;35.13;24.40;;;17.80;76.20;;;18.78;42.58;98782.19;5093899;28;20065;-79
2023/01/12 01:02:12;;;;;;;39.38;27.30;;;17.80;76.20;;;18.77;42.64;98784.09;5060252;28;20043;-79
2023/01/12 01:04:39;;;;;;;37.58;24.70;;;17.70;76.10;;;18.78;42.57;98793.97;5064917;27;20140;-79
2023/01/12 01:07:04;;;;;;;36.83;25.48;;;17.80;76.30;;;18.79;42.45;98792.03;5069358;28;20542;-79
2023/01/12 01:09:31;;;;;;;37.95;23.33;;;17.80;76.20;;;18.78;42.52;98793.97;5089250;28;20040;-79
2023/01/12 01:11:57;;;;;;;42.60;26.85;;;17.80;76.30;;;18.82;42.54;98794.91;5041763;28;20498;-79
2023/01/12 01:14:23;;;;;;;42.38;25.88;;;17.80;76.20;;;18.81;42.53;98798.00;5059927;28;20032;-79
2023/01/12 01:16:49;;;;;;;43.03;24.88;;;17.80;76.20;;;18.77;42.60;98794.28;5073589;28;20147;-79
2023/01/12 01:19:16;;;;;;;40.78;25.98;;;17.80;76.20;;;18.77;42.52;98795.09;5058013;28;20116;-79
2023/01/12 01:21:41;;;;;;;35.05;25.83;;;17.80;76.20;;;18.75;42.51;98802.88;5055444;28;20036;-79
2023/01/12 01:24:10;;;;;;;40.25;25.23;;;17.80;77.00;;;18.77;42.64;98795.09;5051627;28;20045;-79
2023/01/12 01:26:36;;;;;;;40.40;26.00;;;17.80;76.20;;;18.76;42.49;98795.44;5068845;28;20066;-79
2023/01/12 01:29:03;;;;;;;34.63;23.23;;;17.70;76.10;;;18.76;42.42;98790.75;5057165;28;20375;-80
2023/01/12 01:31:29;;;;;;;36.55;26.02;;;17.80;76.10;;;18.77;42.51;98792.34;5076162;28;20085;-79
2023/01/12 01:33:55;;;;;;;39.88;26.50;;;17.80;76.10;;;18.75;42.61;98797.41;5074148;28;20090;-79
2023/01/12 01:36:21;;;;;;;38.45;23.88;;;17.80;76.20;;;18.77;42.59;98800.59;5076446;28;20036;-79
2023/01/12 01:38:48;;;;;;;36.95;25.70;;;17.80;76.20;;;18.75;42.65;98796.53;5072190;28;20044;-79
2023/01/12 01:41:21;;;;;;;36.65;23.80;;;17.80;76.30;;;18.77;42.50;98810.78;5092256;28;20407;-79
2023/01/12 01:43:55;;;;;;;38.38;25.40;;;17.80;76.10;;;18.73;42.45;98810.63;5091306;28;20147;-79
2023/01/12 01:46:30;;;;;;;34.83;25.88;;;17.80;76.20;;;18.77;42.41;98810.78;5091066;28;20040;-79
2023/01/12 01:49:00;;;;;;;33.20;24.88;;;17.80;76.10;;;18.74;42.75;98809.47;5054230;28;20040;-79
2023/01/12 01:51:26;;;;;;;38.65;25.17;;;17.70;76.20;;;18.75;42.65;98810.28;5089087;28;20126;-79
2023/01/12 01:53:52;;;;;;;37.05;24.08;;;17.70;76.10;;;18.74;42.41;98806.72;5074827;28;20048;-79
2023/01/12 01:56:24;;;;;;;33.33;24.88;;;17.80;76.20;;;18.73;42.68;98805.13;5038062;28;20157;-79
2023/01/12 01:59:15;;;;;;;43.45;27.42;;;17.80;76.20;;;18.75;42.45;98811.13;5073102;28;20146;-79
2023/01/12 02:01:42;;;;;;;35.78;24.27;;;17.80;76.10;;;18.71;42.77;98799.13;5079429;28;20115;-79
2023/01/12 02:04:08;;;;;;;40.22;26.27;;;17.70;76.20;;;18.70;42.66;98797.53;5054723;28;20689;-79
2023/01/12 02:06:34;;;;;;;37.47;25.00;;;17.70;76.10;;;18.71;42.59;98799.13;5044413;28;20064;-79
2023/01/12 02:09:27;;;;;;;39.55;25.65;;;17.70;76.10;;;18.73;42.59;98804.31;5074598;28;20040;-79
2023/01/12 02:17:32;;;;;;;39.55;25.77;;;17.80;76.20;;;18.70;42.47;98799.44;5084431;28;20119;-79
2023/01/12 02:20:06;;;;;;;40.33;24.30;;;17.80;76.20;;;18.74;42.46;98790.22;5109168;28;20076;-79
2023/01/12 02:22:50;;;;;;;34.15;23.60;;;17.80;76.10;;;18.72;42.44;98789.75;5106784;28;20043;-79
2023/01/12 02:25:43;;;;;;;37.10;25.58;;;17.80;76.10;;;18.72;42.39;98797.19;5112844;28;20052;-79
2023/01/12 02:28:52;;;;;;;38.75;25.13;;;17.80;75.90;;;18.72;42.55;98776.00;5111177;28;20089;-79
2023/01/12 02:31:50;;;;;;;35.40;24.58;;;17.80;75.90;;;18.70;42.32;98781.06;5111745;28;20053;-79
2023/01/12 02:34:36;;;;;;;44.75;26.98;;;17.80;75.90;;;18.72;42.29;98786.19;5110117;28;20055;-79
2023/01/12 02:37:07;;;;;;;36.10;24.85;;;17.70;75.70;;;18.74;42.31;98783.94;5110624;28;20055;-79
2023/01/12 02:39:58;;;;;;;34.90;24.20;;;17.80;75.80;;;18.75;42.57;98785.53;5092056;28;20051;-79
2023/01/12 02:42:40;;;;;;;37.80;24.23;;;17.80;75.70;;;18.73;42.34;98790.59;5074265;28;20052;-79
2023/01/12 02:45:41;;;;;;;39.72;24.73;;;17.80;75.70;;;18.72;42.46;98791.69;5110051;28;20183;-79
2023/01/12 02:48:58;;;;;;;33.42;24.88;;;17.80;75.70;;;18.73;42.47;98788.63;5093343;28;20032;-79
2023/01/12 02:52:00;;;;;;;34.20;24.42;;;17.70;75.70;;;18.70;42.45;98808.53;5016665;28;20522;-79
2023/01/12 02:54:27;;;;;;;36.40;24.80;;;17.80;75.70;;;18.70;42.34;98803.03;5024989;28;20045;-79
2023/01/12 02:56:56;;;;;;;37.47;25.65;;;17.80;75.60;;;18.72;42.17;98802.69;5067029;28;20100;-79
2023/01/12 02:59:24;;;;;;;36.10;23.17;;;17.80;75.50;;;18.71;42.32;98815.63;5085117;28;20035;-79
2023/01/12 03:01:51;;;;;;;35.92;24.33;;;17.80;75.60;;;18.68;42.52;98818.22;5088604;28;20115;-79
2023/01/12 03:04:20;;;;;;;36.22;24.67;;;17.80;75.60;;;18.71;42.47;98812.88;5095032;28;20036;-79
2023/01/12 03:06:55;;;;;;;33.67;24.52;;;17.80;75.60;;;18.70;42.41;98821.44;5076162;28;20062;-79
2023/01/12 03:09:24;;;;;;;39.67;26.40;;;17.80;75.60;;;18.69;42.41;98823.38;5111746;28;20047;-79
2023/01/12 03:11:51;;;;;;;33.65;23.98;;;17.80;75.60;;;18.69;42.30;98820.63;5075112;28;20058;-79
2023/01/12 03:14:17;;;;;;;32.08;23.23;;;17.80;75.70;;;18.66;42.55;98827.59;5075204;28;20109;-79
2023/01/12 03:16:43;;;;;;;31.30;22.20;;;17.70;76.00;;;18.66;42.74;98822.09;5057782;28;20047;-79
2023/01/12 03:19:20;;;;;;;40.00;24.80;;;17.70;76.10;;;18.63;42.67;98816.47;5089640;28;20055;-79
2023/01/12 03:21:48;;;;;;;32.65;23.23;;;17.80;75.90;;;18.65;42.59;98814.19;5090466;28;20487;-79
2023/01/12 03:24:23;;;;;;;36.42;25.75;;;17.80;75.70;;;18.70;42.54;98816.78;5105621;28;20092;-79
2023/01/12 03:26:52;;;;;;;34.20;23.58;;;17.80;75.70;;;18.68;42.09;98816.28;5076348;28;20042;-79
2023/01/12 03:29:33;;;;;;;30.67;22.90;;;17.80;75.60;;;18.66;42.41;98824.03;5077149;28;20042;-80
2023/01/12 03:31:59;;;;;;;36.15;22.73;;;17.80;75.70;;;18.70;42.48;98821.44;5080736;28;20045;-80
2023/01/12 03:34:25;;;;;;;31.75;21.90;;;17.70;75.50;;;18.69;42.27;98820.63;5076202;28;20043;-80
2023/01/12 03:37:11;;;;;;;32.72;23.38;;;17.70;75.60;;;18.65;42.37;98826.00;5094174;28;20429;-79
2023/01/12 03:40:09;;;;;;;31.08;22.38;;;17.70;75.60;;;18.66;42.63;98821.28;5073487;28;20043;-79
2023/01/12 03:43:37;;;;;;;33.50;23.50;;;17.80;75.70;;;18.62;42.88;98820.31;5079726;28;20052;-79
2023/01/12 03:46:16;;;;;;;31.40;23.17;;;17.80;75.90;;;18.58;42.92;98820.19;5080955;28;20055;-79
2023/01/12 03:49:16;;;;;;;27.23;20.55;;;17.70;76.10;;;18.60;42.71;98823.41;5093542;28;20039;-80
2023/01/12 03:51:44;;;;;;;33.58;22.15;;;17.70;75.80;;;18.62;42.45;98826.66;5091632;28;20031;-79
2023/01/12 03:54:10;;;;;;;35.50;22.55;;;17.70;75.60;;;18.64;42.60;98827.09;5089795;28;20040;-79
2023/01/12 03:56:37;;;;;;;33.80;22.25;;;17.70;75.60;;;18.62;42.34;98831.31;5089330;28;20093;-80
2023/01/12 03:59:03;;;;;;;37.40;23.88;;;17.80;75.70;;;18.65;42.58;98831.47;5060851;28;20501;-80
2023/01/12 04:01:30;;;;;;;35.35;23.65;;;17.80;75.70;;;18.65;42.33;98830.69;5090764;28;20036;-79
2023/01/12 04:03:56;;;;;;;32.20;22.65;;;17.80;75.60;;;18.64;42.76;98835.34;5072822;28;20055;-79
2023/01/12 04:06:22;;;;;;;32.50;21.83;;;17.70;75.90;;;18.62;42.59;98826.66;5063107;27;20047;-79
2023/01/12 04:08:48;;;;;;;28.98;20.50;;;17.70;76.00;;;18.64;42.67;98829.06;5079132;27;20084;-79
2023/01/12 04:13:59;;;;;;;33.88;22.48;;;17.80;75.60;;;18.58;42.71;98830.38;5099825;27;20378;-79
2023/01/12 04:16:25;;;;;;;29.17;20.42;;;17.70;75.60;;;18.59;42.44;98832.78;5078165;27;20049;-79
2023/01/12 04:18:51;;;;;;;29.58;20.80;;;17.70;75.60;;;18.63;42.61;98835.69;5078078;27;20043;-79
2023/01/12 04:24:02;;;;;;;32.83;20.85;;;17.70;75.50;;;18.62;42.53;98837.63;5097262;27;20588;-78
2023/01/12 04:26:29;;;;;;;32.92;22.88;;;17.70;75.60;;;18.63;42.16;98831.00;5095379;27;20039;-79
2023/01/12 04:28:55;;;;;;;31.10;20.17;;;17.70;75.50;;;18.62;42.41;98834.06;5074653;27;20196;-79
2023/01/12 04:31:21;;;;;;;29.58;21.13;;;17.70;75.50;;;18.59;42.31;98838.25;5076198;27;20433;-80
2023/01/12 04:33:47;;;;;;;27.92;19.83;;;17.70;75.50;;;18.59;42.51;98832.78;5077623;28;20040;-80
2023/01/12 04:36:14;;;;;;;30.80;21.85;;;17.70;75.40;;;18.62;42.32;98839.56;5094760;27;20096;-80
2023/01/12 04:38:40;;;;;;;30.10;20.15;;;17.70;75.40;;;18.60;42.38;98833.59;5090291;27;20128;-80
2023/01/12 04:41:07;;;;;;;32.55;20.77;;;17.70;75.40;;;18.59;42.65;98831.97;5076674;27;20099;-79
2023/01/12 04:43:34;;;;;;;30.83;21.00;;;17.80;75.40;;;18.60;42.54;98833.59;5096786;27;20039;-80
2023/01/12 04:46:05;;;;;;;28.33;21.30;;;17.70;75.40;;;18.58;42.45;98833.13;5060594;27;20040;-80
2023/01/12 04:48:31;;;;;;;32.55;21.15;;;17.70;75.30;;;18.56;42.43;98836.16;5105734;28;20040;-80
2023/01/12 04:50:59;;;;;;;26.42;19.33;;;17.70;75.40;;;18.56;42.35;98836.16;5079917;28;20526;-80
2023/01/12 04:53:25;;;;;;;31.42;18.65;;;17.70;75.30;;;18.55;42.33;98836.50;5092490;28;20047;-80
2023/01/12 04:55:51;;;;;;;26.23;19.42;;;17.70;75.20;;;18.57;42.44;98834.22;5092660;28;20046;-80
2023/01/12 04:58:17;;;;;;;30.75;21.08;;;17.70;75.20;;;18.56;42.31;98832.63;5077313;28;20035;-80
2023/01/12 05:00:43;;;;;;;28.80;19.65;;;17.70;75.20;;;18.54;42.38;98838.44;5079643;28;20463;-80
2023/01/12 05:03:11;;;;;;;27.75;20.10;;;17.70;75.20;;;18.56;42.48;98833.44;5077358;28;20122;-80
2023/01/12 05:05:37;;;;;;;28.40;20.13;;;17.70;75.20;;;18.56;42.31;98829.88;5061222;28;20549;-79
2023/01/12 05:10:57;;;;;;;29.73;20.10;;;17.70;75.30;;;18.53;42.37;98830.53;5085109;28;20121;-79
2023/01/12 05:13:25;;;;;;;29.38;19.52;;;17.70;75.30;;;18.55;42.33;98842.00;5114768;28;20054;-79
2023/01/12 05:15:52;;;;;;;32.08;20.17;;;17.70;75.20;;;18.54;42.35;98843.13;5098458;28;20071;-79
2023/01/12 05:18:18;;;;;;;33.95;20.70;;;17.80;75.20;;;18.54;42.29;98846.66;5081781;28;20035;-79
2023/01/12 05:20:45;;;;;;;27.52;19.48;;;17.80;75.20;;;18.56;42.24;98854.59;5092790;28;20039;-79
2023/01/12 05:23:11;;;;;;;28.05;20.60;;;17.70;75.10;;;18.53;42.21;98849.75;5109090;28;20092;-80
2023/01/12 05:25:37;;;;;;;28.65;19.58;;;17.70;75.10;;;18.53;42.32;98856.06;5079302;28;20505;-80
2023/01/12 05:28:03;;;;;;;28.23;19.88;;;17.70;75.20;;;18.54;42.32;98859.59;5077579;28;20035;-79
2023/01/12 05:30:29;;;;;;;27.52;19.27;;;17.70;75.10;;;18.50;42.39;98858.66;5122139;28;20109;-79
2023/01/12 05:32:55;;;;;;;37.05;20.42;;;17.70;75.10;;;18.52;42.36;98859.94;5098659;28;20039;-79
2023/01/12 05:35:22;;;;;;;25.10;18.25;;;17.70;75.10;;;18.51;42.37;98863.00;5078312;28;20046;-79
2023/01/12 05:37:48;;;;;;;23.08;18.10;;;17.70;75.10;;;18.51;42.35;98863.81;5080642;28;20039;-79
2023/01/12 05:40:14;;;;;;;28.00;19.17;;;17.70;75.10;;;18.50;42.44;98861.41;5094275;28;20043;-79
2023/01/12 05:45:25;;;;;;;26.98;19.42;;;17.70;75.10;;;18.46;42.47;98858.47;5102674;28;20039;-80
2023/01/12 05:48:01;;;;;;;25.33;18.20;;;17.70;75.20;;;18.46;42.53;98865.91;5074061;28;20035;-80
2023/01/12 05:50:27;;;;;;;26.50;19.17;;;17.70;75.20;;;18.47;42.36;98862.88;5079951;28;20091;-79
2023/01/12 05:52:53;;;;;;;22.02;16.55;;;17.70;75.20;;;18.50;42.42;98848.47;5080728;27;20367;-79
2023/01/12 05:55:19;;;;;;;25.83;18.17;;;17.70;75.10;;;18.49;42.42;98855.09;5114688;27;20058;-79
2023/01/12 05:57:45;;;;;;;24.35;17.08;;;17.80;75.20;;;18.47;42.43;98853.78;5068598;27;20738;-79
2023/01/12 06:00:13;;;;;;;24.20;18.77;;;17.70;75.10;;;18.47;42.38;98851.03;5101627;27;20039;-80
2023/01/12 06:02:39;;;;;;;26.60;19.15;;;17.70;75.20;;;18.48;42.41;98852.69;5102622;27;20060;-80
2023/01/12 06:05:08;;;;;;;23.58;17.60;;;17.70;75.20;;;18.44;42.37;98847.84;5079694;27;20050;-79
2023/01/12 06:07:34;;;;;;;26.52;18.15;;;17.70;75.20;;;18.48;42.44;98845.25;5081556;27;20039;-80
2023/01/12 06:10:00;;;;;;;28.70;17.70;;;17.70;75.20;;;18.47;42.35;98834.56;5117996;27;20032;-80
2023/01/12 06:15:12;;;;;;;28.95;18.95;;;17.70;75.20;;;18.49;42.39;98843.28;5105679;27;20079;-79
2023/01/12 06:17:38;;;;;;;22.13;17.27;;;17.70;75.20;;;18.47;42.69;98854.63;5094516;27;20039;-79
2023/01/12 06:20:05;;;;;;;26.70;17.77;;;17.70;75.60;;;18.44;42.88;98856.06;5100100;27;20040;-79
2023/01/12 06:22:31;;;;;;;24.10;18.00;;;17.70;75.90;;;18.47;42.97;98851.88;5081028;27;20035;-79
2023/01/12 06:24:57;;;;;;;30.17;18.00;;;17.70;76.10;;;18.46;42.49;98853.00;5081457;27;20036;-79
2023/01/12 06:27:24;;;;;;;25.73;16.13;;;17.70;75.40;;;18.42;42.41;98866.56;5072267;27;20069;-79
2023/01/12 06:29:51;;;;;;;23.05;15.60;;;17.70;75.40;;;18.43;42.63;98864.63;5096445;27;20462;-79
2023/01/12 06:32:17;;;;;;;24.30;17.05;;;17.70;75.30;;;18.43;42.43;98868.19;5112880;27;20039;-79
2023/01/12 06:34:43;;;;;;;24.35;16.42;;;17.70;75.30;;;18.44;42.46;98863.50;5102564;27;20041;-79
2023/01/12 06:37:11;;;;;;;20.35;15.35;;;17.60;75.40;;;18.43;42.54;98872.88;5065777;27;20394;-79
2023/01/12 06:39:38;;;;;;;22.50;16.75;;;17.70;75.20;;;18.41;42.44;98878.69;5079538;27;20071;-80
2023/01/12 06:44:51;;;;;;;22.42;16.42;;;17.60;75.30;;;18.42;42.49;98863.84;5101737;27;20405;-79
2023/01/12 06:47:20;;;;;;;22.52;16.08;;;17.60;75.20;;;18.42;42.50;98866.56;5098228;27;20065;-79
2023/01/12 06:49:50;;;;;;;22.33;15.90;;;17.60;75.30;;;18.42;42.46;98871.28;5112634;27;20043;-79
2023/01/12 06:52:18;;;;;;;22.60;16.75;;;17.60;75.30;;;18.36;42.54;98873.34;5061965;27;20051;-80
2023/01/12 06:54:45;;;;;;;23.33;15.43;;;17.60;75.40;;;18.37;42.45;98880.47;5081913;27;20050;-79
2023/01/12 06:57:11;;;;;;;28.15;17.35;;;17.50;75.30;;;18.42;42.74;98880.31;5080088;27;20400;-79
2023/01/12 06:59:37;;;;;;;22.90;16.35;;;17.60;75.90;;;18.42;42.61;98872.06;5055873;27;20036;-79
2023/01/12 07:02:04;;;;;;;21.10;16.55;;;17.60;76.00;;;18.40;42.76;98890.81;5079206;27;20050;-79
2023/01/12 07:04:30;;;;;;;23.15;15.20;;;17.60;75.90;;;18.37;42.64;98885.97;5076432;27;20470;-79
2023/01/12 07:06:56;;;;;;;21.95;15.63;;;17.60;75.70;;;18.35;42.63;98892.91;5095848;27;20078;-79
2023/01/12 07:09:22;;;;;;;24.02;14.23;;;17.60;75.70;;;18.36;42.54;98900.00;5109778;27;20061;-79
2023/01/12 07:11:48;;;;;;;23.27;16.02;;;17.60;75.60;;;18.35;42.55;98896.47;5095507;27;20522;-79
2023/01/12 07:14:14;;;;;;;19.30;14.13;;;17.50;75.80;;;18.36;42.67;98900.00;5064730;27;20035;-78
2023/01/12 07:16:40;;;;;;;23.73;16.38;;;17.50;75.80;;;18.33;42.55;98900.66;5110172;27;20035;-79
2023/01/12 07:19:07;;;;;;;22.20;15.38;;;17.50;75.80;;;18.34;42.56;98907.75;5058934;27;20049;-79
2023/01/12 07:21:32;;;;;;;23.38;14.63;;;17.50;75.90;;;18.33;42.54;98901.47;5111240;27;20657;-80
2023/01/12 07:23:59;;;;;;;21.30;15.52;;;17.50;75.80;;;18.36;42.54;98903.56;5111367;27;20035;-79
2023/01/12 07:26:25;;;;;;;21.02;15.90;;;17.50;75.70;;;18.34;42.73;98905.84;5061267;27;20462;-79
2023/01/12 07:28:51;;;;;;;20.55;14.95;;;17.40;75.80;;;18.32;42.60;98910.84;5082418;27;20639;-80
2023/01/12 07:31:17;;;;;;;21.70;15.50;;;17.50;75.80;;;18.29;42.29;98913.41;5114408;27;20045;-79
2023/01/12 07:33:44;;;;;;;23.52;15.30;;;17.50;75.70;;;18.30;42.59;98923.28;5064638;27;20384;-79
2023/01/12 07:36:10;;;;;;;21.75;15.20;;;17.50;75.60;;;18.27;42.62;98921.97;5080385;27;20039;-79
2023/01/12 07:38:37;;;;;;;19.50;14.73;;;17.50;75.60;;;18.30;42.84;98926.81;5099949;27;20096;-79
2023/01/12 07:41:03;;;;;;;21.23;14.93;;;17.40;75.70;;;18.30;42.58;98917.78;5082117;27;20506;-80
2023/01/12 07:43:32;;;;;;;21.15;15.50;;;17.50;75.60;;;18.32;42.60;98934.72;5078623;27;20396;-79
2023/01/12 07:45:58;;;;;;;17.48;12.98;;;17.40;75.50;;;18.33;42.59;98934.41;5082418;27;20114;-79
2023/01/12 07:48:26;;;;;;;22.27;14.48;;;17.50;75.40;;;18.33;42.53;98928.91;5113433;27;20035;-79
2023/01/12 07:50:52;;;;;;;21.40;14.75;;;17.50;75.40;;;18.38;42.81;98934.25;5100906;27;20031;-80
2023/01/12 07:53:19;;;;;;;16.77;13.27;;;17.50;75.90;;;18.36;42.76;98935.72;5090518;27;20039;-79
2023/01/12 07:55:45;;;;;;;19.75;13.10;;;17.50;75.90;;;18.37;42.77;98927.16;5092888;27;20402;-79
2023/01/12 07:58:11;;;;;;;16.02;13.10;;;17.50;75.90;;;18.32;42.82;98926.47;5093911;27;20043;-79
2023/01/12 08:00:38;;;;;;;18.77;13.32;;;17.40;75.80;;;18.34;42.59;98926.97;5076835;27;20045;-79
2023/01/12 08:03:10;;;;;;;19.30;13.88;;;17.50;75.80;;;18.33;42.69;98930.88;5080114;27;20680;-80
2023/01/12 08:05:37;;;;;;;20.73;13.82;;;17.50;75.80;;;18.35;42.75;98934.09;5062352;27;20039;-79
2023/01/12 08:08:04;;;;;;;16.58;13.30;;;17.50;75.80;;;18.34;42.66;98933.28;5083213;27;20497;-79
2023/01/12 08:10:30;;;;;;;16.38;12.52;;;17.40;75.70;;;18.30;42.62;98929.56;5082305;27;20046;-79
2023/01/12 08:12:56;;;;;;;18.95;14.85;;;17.50;75.80;;;18.35;42.55;98929.41;5076962;27;20099;-79
2023/01/12 08:15:23;;;;;;;19.48;13.88;;;17.50;75.60;;;18.33;42.53;98925.38;5065689;27;20027;-79
2023/01/12 08:18:05;;;;;;;16.23;12.77;;;17.40;75.60;;;18.34;42.45;98926.97;5062264;27;20103;-79
2023/01/12 08:20:33;;;;;;;22.55;14.15;;;17.50;75.60;;;18.31;42.52;98924.88;5094436;27;20035;-79
2023/01/12 08:23:30;;;;;;;17.27;12.48;;;17.40;75.60;;;18.32;42.44;98930.06;5078399;27;20086;-79
2023/01/12 08:26:00;;;;;;;18.20;12.73;;;17.50;75.40;;;18.30;42.58;98918.59;5069917;27;20157;-80
2023/01/12 08:28:42;;;;;;;16.40;11.90;;;17.40;75.50;;;18.31;42.43;98920.19;5097853;27;20251;-79
2023/01/12 08:31:08;;;;;;;16.05;12.25;;;17.50;75.50;;;18.30;42.47;98932.31;5112661;27;20118;-79
2023/01/12 08:33:36;;;;;;;16.02;11.30;;;17.40;75.50;;;18.34;42.45;98930.56;5077683;27;20091;-79
2023/01/12 08:36:06;;;;;;;17.77;12.32;;;17.40;75.50;;;18.34;42.48;98926.97;5061137;27;20050;-79
2023/01/12 08:38:33;;;;;;;16.15;12.00;;;17.40;75.40;;;18.37;42.74;98918.91;5081408;27;20435;-80
2023/01/12 08:44:02;;;;;;;17.75;13.00;;;17.50;76.00;;;18.37;42.43;98918.91;5102761;27;20887;-79
2023/01/12 08:46:34;;;;;;;15.68;12.07;;;17.50;75.90;;;18.32;42.47;98926.47;5101254;27;20051;-79
2023/01/12 08:49:01;;;;;;;15.13;11.60;;;17.50;75.60;;;18.34;42.58;98922.31;5108814;28;20056;-80
2023/01/12 08:51:27;;;;;;;17.70;12.43;;;17.40;75.60;;;18.31;42.58;98924.88;5097405;28;20043;-80
2023/01/12 08:53:53;;;;;;;17.25;11.93;;;17.50;75.70;;;18.31;42.52;98935.88;5064594;28;20080;-80
2023/01/12 08:56:20;;;;;;;18.77;12.60;;;17.40;75.40;;;18.31;42.42;98936.66;5078159;28;20445;-80
2023/01/12 08:58:46;;;;;;;18.63;12.45;;;17.50;75.30;;;18.31;42.40;98944.91;5079343;28;20042;-80
2023/01/12 09:01:13;;;;;;;14.40;10.82;;;17.50;75.30;;;18.32;42.41;98941.03;5094836;28;20043;-80
2023/01/12 09:03:40;;;;;;;14.50;11.20;;;17.50;75.30;;;18.31;42.38;98938.59;5093267;28;20482;-79
2023/01/12 09:06:22;;;;;;;18.30;11.90;;;17.50;75.30;;;18.35;42.58;98943.13;5093861;28;20040;-79
2023/01/12 09:09:05;;;;;;;15.38;11.63;;;17.50;75.90;;;18.37;42.61;98937.34;5095615;28;20076;-80
2023/01/12 09:11:31;;;;;;;17.98;11.73;;;17.50;75.90;;;18.37;42.40;98940.09;5099255;28;20039;-79
2023/01/12 09:13:57;;;;;;;15.75;11.32;;;17.50;75.80;;;18.34;42.43;98932.47;5078962;28;20101;-79
2023/01/12 09:16:25;;;;;;;13.35;10.52;;;17.50;75.50;;;18.30;42.68;98929.56;5074418;28;20256;-79
2023/01/12 09:18:51;;;;;;;14.13;11.60;;;17.50;76.10;;;18.33;42.32;98928.91;5080432;28;20040;-79
2023/01/12 09:21:20;;;;;;;15.55;11.43;;;17.50;75.30;;;18.31;42.43;98922.13;5096078;28;20039;-80
2023/01/12 09:23:48;;;;;;;14.85;10.52;;;17.50;75.40;;;18.33;42.54;98922.63;5096224;28;20051;-80
2023/01/12 09:26:17;;;;;;;14.85;11.10;;;17.50;75.40;;;18.32;42.56;98919.06;5058225;27;20039;-79
2023/01/12 09:28:46;;;;;;;17.40;10.93;;;17.50;75.40;;;18.33;42.84;98920.69;5102015;27;20530;-79
2023/01/12 09:31:15;;;;;;;15.65;10.60;;;17.50;75.70;;;18.34;42.67;98905.00;5115633;27;20046;-80
2023/01/12 09:33:41;;;;;;;15.85;10.50;;;17.50;75.80;;;18.32;42.67;98908.09;5082806;27;20031;-80
2023/01/12 09:36:09;;;;;;;14.30;11.38;;;17.50;75.60;;;18.33;42.49;98904.19;5083276;27;20087;-79
2023/01/12 09:38:39;;;;;;;12.80;10.77;;;17.50;75.40;;;18.30;42.48;98898.56;5113159;27;20047;-80
2023/01/12 09:47:18;;;;;;;14.13;10.95;;;17.40;75.80;;;18.29;42.53;98888.69;5136694;27;20038;-79
2023/01/12 09:49:49;;;;;;;15.63;10.65;;;17.40;75.70;;;18.34;42.38;98894.03;5086351;27;20043;-80
2023/01/12 09:52:29;;;;;;;14.95;10.32;;;17.40;75.40;;;18.30;42.56;98884.84;5064752;27;20040;-80
2023/01/12 09:54:54;;;;;;;13.23;9.85;;;17.50;75.30;;;18.26;42.61;98883.84;5086485;27;20063;-80
2023/01/12 09:57:36;;;;;;;12.98;9.93;;;17.40;75.20;;;18.26;42.40;98873.66;5099146;27;20031;-80
2023/01/12 10:00:08;;;;;;;14.60;10.77;;;17.40;75.20;;;18.29;42.46;98877.72;5112505;27;20039;-80
2023/01/12 10:02:36;;;;;;;12.25;9.75;;;17.40;75.30;;;18.30;42.36;98874.66;5116147;27;20396;-80
2023/01/12 10:05:13;;;;;;;14.65;9.13;;;17.40;75.20;;;18.31;42.51;98869.97;5081235;27;20042;-79
2023/01/12 10:07:40;;;;;;;14.90;10.60;;;17.50;75.30;;;18.28;42.44;98871.41;5095956;27;20118;-80
2023/01/12 10:10:09;;;;;;;11.38;9.43;;;17.40;75.40;;;18.29;42.28;98866.72;5078958;27;20498;-79
2023/01/12 10:12:41;;;;;;;13.65;9.98;;;17.40;75.50;;;18.26;42.51;98862.69;5083583;27;20061;-79
2023/01/12 10:15:11;;;;;;;;;;;17.40;75.50;;;18.26;42.52;98862.69;5084178;27;20042;-80
2023/01/12 10:17:56;;;;;;;11.05;9.07;;;17.30;75.50;;;18.29;42.41;98861.22;5097576;27;19945;-80
2023/01/12 10:20:32;;;;;;;13.73;9.30;;;17.40;75.70;;;18.31;42.37;98858.97;5134662;27;20068;-80
2023/01/12 10:23:07;;;;;;;10.65;8.88;;;17.40;75.40;;;18.27;42.32;98858.00;5097496;27;20048;-80
2023/01/12 10:25:40;;;;;;;11.30;9.07;;;17.40;75.40;;;18.32;42.26;98864.16;5099759;27;20043;-80
2023/01/12 10:28:28;;;;;;;13.68;9.45;;;17.40;75.50;;;18.29;42.18;98866.72;5110751;27;20064;-80
2023/01/12 10:30:55;;;;;;;15.18;9.35;;;17.40;75.40;;;18.33;42.40;98857.53;5082219;27;20046;-80
2023/01/12 10:33:27;;;;;;;11.90;9.23;;;17.40;75.70;;;18.39;42.30;98850.75;5093995;27;20035;-80
2023/01/12 10:36:10;;;;;;;10.80;8.60;;;17.40;75.70;;;18.37;42.53;98853.00;5097975;27;20042;-80
2023/01/12 10:38:59;;;;;;;13.45;8.05;;;17.50;75.60;;;18.34;42.46;98848.16;5114325;27;20053;-80
2023/01/12 10:41:32;;;;;;;13.43;8.95;;;17.50;75.30;;;18.31;42.24;98845.25;5086219;27;20051;-80
2023/01/12 10:43:59;;;;;;;12.77;9.23;;;17.50;75.30;;;18.35;42.12;98838.78;5094995;27;20031;-79
2023/01/12 10:46:32;;;;;;;10.10;8.52;;;17.40;75.30;;;18.34;42.67;98837.19;5112685;27;20103;-80
2023/01/12 10:49:19;;;;;;;13.55;8.45;;;17.40;75.40;;;18.36;42.58;98834.91;5063986;27;20436;-80
2023/01/12 10:51:56;;;;;;;12.30;9.05;;;17.50;75.30;;;18.41;42.23;98836.69;5098736;27;20047;-80
2023/01/12 10:54:30;;;;;;;10.63;8.27;;;17.60;75.20;;;18.38;42.33;98827.16;5083175;27;20047;-79
2023/01/12 10:57:18;;;;;;;11.10;8.55;;;17.60;75.10;;;18.32;42.30;98833.94;5100469;27;20053;-80
2023/01/12 10:59:58;;;;;;;13.07;8.23;;;17.50;75.20;;;18.30;42.37;98821.69;5102947;27;20661;-80